sensor_id;sensor_type;location;lat;lon;timestamp;pressure;altitude;pressure_sealevel;temperature;humidity
47753;BME280;2038;51.728;6.674;2022-10-16T00:01:37;100402.69;;;14.86;100.00
47753;BME280;2038;51.728;6.674;2022-10-16T00:04:04;100393.78;;;14.78;100.00
47753;BME280;2038;51.728;6.674;2022-10-16T00:06:31;100397.53;;;14.84;100.00
47753;BME280;2038;51.728;6.674;2022-10-16T00:08:57;100394.00;;;14.82;100.00
47753;BME280;2038;51.728;6.674;2022-10-16T00:11:29;100401.56;;;14.79;100.00
47753;BME280;2038;51.728;6.674;2022-10-16T00:14:04;100390.16;;;14.73;100.00
47753;BME280;2038;51.728;6.674;2022-10-16T00:16:34;100390.44;;;14.79;100.00
47753;BME280;2038;51.728;6.674;2022-10-16T00:19:01;100388.78;;;14.81;100.00
47753;BME280;2038;51.728;6.674;2022-10-16T00:21:29;100391.56;;;14.85;100.00
47753;BME280;2038;51.728;6.674;2022-10-16T00:23:59;100391.25;;;14.98;100.00
47753;BME280;2038;51.728;6.674;2022-10-16T00:26:29;100397.41;;;15.02;100.00
47753;BME280;2038;51.728;6.674;2022-10-16T00:28:57;100395.44;;;14.96;100.00
47753;BME280;2038;51.728;6.674;2022-10-16T00:31:23;100404.78;;;14.94;100.00
47753;BME280;2038;51.728;6.674;2022-10-16T00:33:50;100403.81;;;14.92;100.00
47753;BME280;2038;51.728;6.674;2022-10-16T00:36:19;100407.22;;;14.91;100.00
47753;BME280;2038;51.728;6.674;2022-10-16T00:38:47;100404.66;;;14.91;100.00
47753;BME280;2038;51.728;6.674;2022-10-16T00:41:18;100401.09;;;14.88;100.00
47753;BME280;2038;51.728;6.674;2022-10-16T00:43:50;100403.47;;;14.83;100.00
47753;BME280;2038;51.728;6.674;2022-10-16T00:46:31;100398.94;;;14.78;100.00
47753;BME280;2038;51.728;6.674;2022-10-16T00:49:16;100402.44;;;14.80;100.00
47753;BME280;2038;51.728;6.674;2022-10-16T00:51:50;100393.69;;;14.75;100.00
47753;BME280;2038;51.728;6.674;2022-10-16T00:54:26;100398.53;;;14.69;100.00
47753;BME280;2038;51.728;6.674;2022-10-16T00:56:56;100396.72;;;14.66;100.00
47753;BME280;2038;51.728;6.674;2022-10-16T00:59:29;100399.28;;;14.66;100.00
47753;BME280;2038;51.728;6.674;2022-10-16T01:01:58;100398.19;;;14.61;100.00
47753;BME280;2038;51.728;6.674;2022-10-16T01:04:26;100396.72;;;14.66;100.00
47753;BME280;2038;51.728;6.674;2022-10-16T01:07:14;100395.13;;;14.68;100.00
47753;BME280;2038;51.728;6.674;2022-10-16T01:17:49;100393.47;;;14.70;100.00
47753;BME280;2038;51.728;6.674;2022-10-16T01:20:37;100392.38;;;14.65;100.00
47753;BME280;2038;51.728;6.674;2022-10-16T01:23:36;100388.91;;;14.63;100.00
47753;BME280;2038;51.728;6.674;2022-10-16T01:31:56;100395.72;;;14.63;100.00
47753;BME280;2038;51.728;6.674;2022-10-16T01:34:37;100388.09;;;14.64;100.00
47753;BME280;2038;51.728;6.674;2022-10-16T01:37:16;100380.56;;;14.69;100.00
47753;BME280;2038;51.728;6.674;2022-10-16T01:39:50;100372.88;;;14.69;100.00
47753;BME280;2038;51.728;6.674;2022-10-16T01:42:27;100387.47;;;14.70;100.00
47753;BME280;2038;51.728;6.674;2022-10-16T01:45:00;100384.84;;;14.68;100.00
47753;BME280;2038;51.728;6.674;2022-10-16T01:47:32;100387.25;;;14.65;100.00
47753;BME280;2038;51.728;6.674;2022-10-16T01:50:03;100377.88;;;14.66;100.00
47753;BME280;2038;51.728;6.674;2022-10-16T01:52:33;100379.84;;;14.71;100.00
47753;BME280;2038;51.728;6.674;2022-10-16T01:55:06;100378.72;;;14.85;100.00
47753;BME280;2038;51.728;6.674;2022-10-16T01:57:38;100383.63;;;14.79;100.00
47753;BME280;2038;51.728;6.674;2022-10-16T02:00:13;100383.94;;;14.87;100.00
47753;BME280;2038;51.728;6.674;2022-10-16T02:02:46;100388.09;;;14.85;100.00
47753;BME280;2038;51.728;6.674;2022-10-16T02:05:29;100390.00;;;14.89;100.00
47753;BME280;2038;51.728;6.674;2022-10-16T02:07:59;100405.72;;;14.96;100.00
47753;BME280;2038;51.728;6.674;2022-10-16T02:10:26;100408.91;;;14.91;100.00
47753;BME280;2038;51.728;6.674;2022-10-16T02:13:12;100408.09;;;14.92;100.00
47753;BME280;2038;51.728;6.674;2022-10-16T02:15:45;100404.34;;;14.84;100.00
47753;BME280;2038;51.728;6.674;2022-10-16T02:18:12;100412.97;;;14.86;100.00
47753;BME280;2038;51.728;6.674;2022-10-16T02:21:16;100409.59;;;14.87;100.00
47753;BME280;2038;51.728;6.674;2022-10-16T02:29:25;100416.66;;;14.92;100.00
47753;BME280;2038;51.728;6.674;2022-10-16T02:32:04;100413.97;;;14.89;100.00
47753;BME280;2038;51.728;6.674;2022-10-16T02:34:34;100407.03;;;14.87;100.00
47753;BME280;2038;51.728;6.674;2022-10-16T02:37:02;100409.78;;;14.91;100.00
47753;BME280;2038;51.728;6.674;2022-10-16T02:39:31;100410.59;;;14.90;100.00
47753;BME280;2038;51.728;6.674;2022-10-16T02:41:57;100414.78;;;14.88;100.00
47753;BME280;2038;51.728;6.674;2022-10-16T02:44:23;100419.84;;;14.87;100.00
47753;BME280;2038;51.728;6.674;2022-10-16T02:46:50;100411.28;;;14.86;100.00
47753;BME280;2038;51.728;6.674;2022-10-16T02:49:16;100404.13;;;14.79;100.00
47753;BME280;2038;51.728;6.674;2022-10-16T02:51:43;100400.03;;;14.64;100.00
47753;BME280;2038;51.728;6.674;2022-10-16T02:54:10;100401.75;;;14.65;100.00
47753;BME280;2038;51.728;6.674;2022-10-16T02:56:36;100408.63;;;14.64;100.00
47753;BME280;2038;51.728;6.674;2022-10-16T02:59:02;100404.97;;;14.59;100.00
47753;BME280;2038;51.728;6.674;2022-10-16T03:01:29;100409.34;;;14.62;100.00
47753;BME280;2038;51.728;6.674;2022-10-16T03:03:55;100414.59;;;14.65;100.00
47753;BME280;2038;51.728;6.674;2022-10-16T03:06:21;100413.59;;;14.61;100.00
47753;BME280;2038;51.728;6.674;2022-10-16T03:08:47;100413.75;;;14.64;100.00
47753;BME280;2038;51.728;6.674;2022-10-16T03:11:14;100410.34;;;14.65;100.00
47753;BME280;2038;51.728;6.674;2022-10-16T03:13:40;100405.22;;;14.65;100.00
47753;BME280;2038;51.728;6.674;2022-10-16T03:16:06;100409.22;;;14.59;100.00
47753;BME280;2038;51.728;6.674;2022-10-16T03:18:32;100412.69;;;14.61;100.00
47753;BME280;2038;51.728;6.674;2022-10-16T03:20:58;100410.97;;;14.60;100.00
47753;BME280;2038;51.728;6.674;2022-10-16T03:23:25;100404.09;;;14.59;100.00
47753;BME280;2038;51.728;6.674;2022-10-16T03:25:51;100405.75;;;14.58;100.00
47753;BME280;2038;51.728;6.674;2022-10-16T03:28:18;100396.47;;;14.60;100.00
47753;BME280;2038;51.728;6.674;2022-10-16T03:30:44;100404.41;;;14.66;100.00
47753;BME280;2038;51.728;6.674;2022-10-16T03:33:10;100400.84;;;14.63;100.00
47753;BME280;2038;51.728;6.674;2022-10-16T03:35:37;100402.66;;;14.65;100.00
47753;BME280;2038;51.728;6.674;2022-10-16T03:38:03;100405.75;;;14.58;100.00
47753;BME280;2038;51.728;6.674;2022-10-16T03:40:30;100404.41;;;14.66;100.00
47753;BME280;2038;51.728;6.674;2022-10-16T03:42:58;100413.66;;;14.63;100.00
47753;BME280;2038;51.728;6.674;2022-10-16T03:45:25;100418.03;;;14.65;100.00
47753;BME280;2038;51.728;6.674;2022-10-16T03:47:52;100417.16;;;14.65;100.00
47753;BME280;2038;51.728;6.674;2022-10-16T03:50:18;100422.13;;;14.60;100.00
47753;BME280;2038;51.728;6.674;2022-10-16T03:52:44;100419.59;;;14.62;100.00
47753;BME280;2038;51.728;6.674;2022-10-16T03:55:10;100420.41;;;14.61;100.00
47753;BME280;2038;51.728;6.674;2022-10-16T03:57:36;100424.06;;;14.66;100.00
47753;BME280;2038;51.728;6.674;2022-10-16T04:00:03;100421.56;;;14.67;100.00
47753;BME280;2038;51.728;6.674;2022-10-16T04:02:30;100419.81;;;14.66;100.00
47753;BME280;2038;51.728;6.674;2022-10-16T04:04:56;100412.31;;;14.71;100.00
47753;BME280;2038;51.728;6.674;2022-10-16T04:07:22;100419.66;;;14.82;100.00
47753;BME280;2038;51.728;6.674;2022-10-16T04:09:48;100419.72;;;14.84;100.00
47753;BME280;2038;51.728;6.674;2022-10-16T04:12:14;100422.22;;;14.82;100.00
47753;BME280;2038;51.728;6.674;2022-10-16T04:14:41;100435.81;;;14.80;100.00
47753;BME280;2038;51.728;6.674;2022-10-16T04:17:07;100438.50;;;14.83;100.00
47753;BME280;2038;51.728;6.674;2022-10-16T04:19:33;100438.81;;;14.90;100.00
47753;BME280;2038;51.728;6.674;2022-10-16T04:21:59;100448.88;;;14.86;100.00
47753;BME280;2038;51.728;6.674;2022-10-16T04:24:25;100453.41;;;14.91;100.00
47753;BME280;2038;51.728;6.674;2022-10-16T04:26:52;100448.22;;;14.90;100.00
47753;BME280;2038;51.728;6.674;2022-10-16T04:29:18;100447.59;;;14.95;100.00
47753;BME280;2038;51.728;6.674;2022-10-16T04:31:44;100457.31;;;15.03;100.00
47753;BME280;2038;51.728;6.674;2022-10-16T04:34:10;100448.66;;;15.00;100.00
47753;BME280;2038;51.728;6.674;2022-10-16T04:36:37;100452.94;;;15.00;100.00
47753;BME280;2038;51.728;6.674;2022-10-16T04:39:03;100455.16;;;14.92;100.00
47753;BME280;2038;51.728;6.674;2022-10-16T04:41:29;100465.50;;;14.94;100.00
47753;BME280;2038;51.728;6.674;2022-10-16T04:43:55;100463.25;;;15.02;100.00
47753;BME280;2038;51.728;6.674;2022-10-16T04:46:21;100467.38;;;14.98;100.00
47753;BME280;2038;51.728;6.674;2022-10-16T04:48:48;100471.56;;;14.96;100.00
47753;BME280;2038;51.728;6.674;2022-10-16T04:51:14;100473.31;;;14.97;100.00
47753;BME280;2038;51.728;6.674;2022-10-16T04:53:40;100465.50;;;14.94;100.00
47753;BME280;2038;51.728;6.674;2022-10-16T04:56:06;100475.19;;;15.01;100.00
47753;BME280;2038;51.728;6.674;2022-10-16T04:58:33;100471.69;;;14.99;100.00
47753;BME280;2038;51.728;6.674;2022-10-16T05:00:59;100472.78;;;15.04;100.00
47753;BME280;2038;51.728;6.674;2022-10-16T05:03:25;100484.59;;;15.00;100.00
47753;BME280;2038;51.728;6.674;2022-10-16T05:05:51;100482.97;;;15.03;100.00
47753;BME280;2038;51.728;6.674;2022-10-16T05:08:17;100482.84;;;14.99;100.00
47753;BME280;2038;51.728;6.674;2022-10-16T05:10:44;100486.34;;;15.02;100.00
47753;BME280;2038;51.728;6.674;2022-10-16T05:13:11;100494.00;;;15.00;100.00
47753;BME280;2038;51.728;6.674;2022-10-16T05:15:37;100500.13;;;15.04;100.00
47753;BME280;2038;51.728;6.674;2022-10-16T05:18:04;100508.44;;;14.98;100.00
47753;BME280;2038;51.728;6.674;2022-10-16T05:20:30;100504.25;;;15.00;100.00
47753;BME280;2038;51.728;6.674;2022-10-16T05:22:56;100508.50;;;14.99;100.00
47753;BME280;2038;51.728;6.674;2022-10-16T05:25:23;100515.88;;;14.92;100.00
47753;BME280;2038;51.728;6.674;2022-10-16T05:27:50;100520.13;;;14.91;100.00
47753;BME280;2038;51.728;6.674;2022-10-16T05:30:17;100516.88;;;14.95;100.00
47753;BME280;2038;51.728;6.674;2022-10-16T05:32:50;100518.03;;;15.02;100.00
47753;BME280;2038;51.728;6.674;2022-10-16T05:35:18;100518.78;;;14.99;100.00
47753;BME280;2038;51.728;6.674;2022-10-16T05:37:45;100520.06;;;14.90;100.00
47753;BME280;2038;51.728;6.674;2022-10-16T05:40:12;100528.03;;;14.96;100.00
47753;BME280;2038;51.728;6.674;2022-10-16T05:42:40;100530.72;;;14.99;100.00
47753;BME280;2038;51.728;6.674;2022-10-16T05:45:08;100527.88;;;14.93;100.00
47753;BME280;2038;51.728;6.674;2022-10-16T05:47:36;100526.28;;;14.95;100.00
47753;BME280;2038;51.728;6.674;2022-10-16T05:50:04;100523.63;;;14.93;100.00
47753;BME280;2038;51.728;6.674;2022-10-16T05:52:30;100525.66;;;15.00;100.00
47753;BME280;2038;51.728;6.674;2022-10-16T05:54:56;100524.72;;;14.98;100.00
47753;BME280;2038;51.728;6.674;2022-10-16T05:57:22;100527.50;;;14.84;100.00
47753;BME280;2038;51.728;6.674;2022-10-16T05:59:49;100528.63;;;14.90;100.00
47753;BME280;2038;51.728;6.674;2022-10-16T06:02:15;100535.25;;;14.85;100.00
47753;BME280;2038;51.728;6.674;2022-10-16T06:04:41;100538.00;;;14.90;100.00
47753;BME280;2038;51.728;6.674;2022-10-16T06:07:08;100544.84;;;14.89;100.00
47753;BME280;2038;51.728;6.674;2022-10-16T06:09:34;100553.41;;;14.90;100.00
47753;BME280;2038;51.728;6.674;2022-10-16T06:12:00;100558.66;;;14.93;100.00
47753;BME280;2038;51.728;6.674;2022-10-16T06:14:27;100556.78;;;14.89;100.00
47753;BME280;2038;51.728;6.674;2022-10-16T06:16:53;100564.47;;;14.89;100.00
47753;BME280;2038;51.728;6.674;2022-10-16T06:19:19;100568.59;;;14.85;100.00
47753;BME280;2038;51.728;6.674;2022-10-16T06:21:45;100570.16;;;14.82;100.00
47753;BME280;2038;51.728;6.674;2022-10-16T06:24:12;100577.03;;;14.83;100.00
47753;BME280;2038;51.728;6.674;2022-10-16T06:26:38;100582.44;;;14.89;100.00
47753;BME280;2038;51.728;6.674;2022-10-16T06:29:04;100576.38;;;14.87;100.00
47753;BME280;2038;51.728;6.674;2022-10-16T06:31:31;100588.41;;;14.88;100.00
47753;BME280;2038;51.728;6.674;2022-10-16T06:33:59;100586.34;;;14.81;100.00
47753;BME280;2038;51.728;6.674;2022-10-16T06:36:26;100598.72;;;14.89;100.00
47753;BME280;2038;51.728;6.674;2022-10-16T06:38:53;100602.84;;;14.86;100.00
47753;BME280;2038;51.728;6.674;2022-10-16T06:41:22;100608.63;;;14.82;100.00
47753;BME280;2038;51.728;6.674;2022-10-16T06:43:49;100610.94;;;14.76;100.00
47753;BME280;2038;51.728;6.674;2022-10-16T06:46:17;100616.41;;;14.83;100.00
47753;BME280;2038;51.728;6.674;2022-10-16T06:48:45;100626.53;;;14.80;100.00
47753;BME280;2038;51.728;6.674;2022-10-16T06:51:14;100635.97;;;14.81;100.00
47753;BME280;2038;51.728;6.674;2022-10-16T06:53:47;100640.09;;;14.78;100.00
47753;BME280;2038;51.728;6.674;2022-10-16T06:56:23;100652.91;;;14.78;100.00
47753;BME280;2038;51.728;6.674;2022-10-16T06:58:51;100661.50;;;14.78;100.00
47753;BME280;2038;51.728;6.674;2022-10-16T07:01:20;100664.94;;;14.79;100.00
47753;BME280;2038;51.728;6.674;2022-10-16T07:03:48;100667.59;;;14.80;100.00
47753;BME280;2038;51.728;6.674;2022-10-16T07:06:17;100678.31;;;14.72;100.00
47753;BME280;2038;51.728;6.674;2022-10-16T07:08:46;100679.22;;;14.74;100.00
47753;BME280;2038;51.728;6.674;2022-10-16T07:11:15;100670.16;;;14.80;100.00
47753;BME280;2038;51.728;6.674;2022-10-16T07:13:47;100680.03;;;14.90;100.00
47753;BME280;2038;51.728;6.674;2022-10-16T07:16:17;100685.31;;;14.93;100.00
47753;BME280;2038;51.728;6.674;2022-10-16T07:18:45;100688.41;;;14.86;100.00
47753;BME280;2038;51.728;6.674;2022-10-16T07:21:16;100685.03;;;14.87;100.00
47753;BME280;2038;51.728;6.674;2022-10-16T07:23:43;100694.19;;;14.82;100.00
47753;BME280;2038;51.728;6.674;2022-10-16T07:26:10;100692.50;;;14.83;100.00
47753;BME280;2038;51.728;6.674;2022-10-16T07:28:37;100695.06;;;14.83;100.00
47753;BME280;2038;51.728;6.674;2022-10-16T07:31:09;100697.03;;;14.88;100.00
47753;BME280;2038;51.728;6.674;2022-10-16T07:33:38;100702.16;;;14.88;100.00
47753;BME280;2038;51.728;6.674;2022-10-16T07:36:07;100706.88;;;14.79;100.00
47753;BME280;2038;51.728;6.674;2022-10-16T07:38:34;100710.03;;;14.91;100.00
47753;BME280;2038;51.728;6.674;2022-10-16T07:41:02;100716.09;;;14.93;100.00
47753;BME280;2038;51.728;6.674;2022-10-16T07:43:31;100721.38;;;14.96;100.00
47753;BME280;2038;51.728;6.674;2022-10-16T07:45:58;100722.69;;;15.06;100.00
47753;BME280;2038;51.728;6.674;2022-10-16T07:48:30;100730.75;;;15.14;100.00
47753;BME280;2038;51.728;6.674;2022-10-16T07:50:59;100735.06;;;15.15;100.00
47753;BME280;2038;51.728;6.674;2022-10-16T07:53:27;100737.88;;;15.19;100.00
47753;BME280;2038;51.728;6.674;2022-10-16T07:56:02;100744.25;;;15.27;100.00
47753;BME280;2038;51.728;6.674;2022-10-16T07:58:31;100743.63;;;15.51;100.00
47753;BME280;2038;51.728;6.674;2022-10-16T08:00:58;100753.31;;;15.56;100.00
47753;BME280;2038;51.728;6.674;2022-10-16T08:03:25;100755.72;;;15.53;100.00
47753;BME280;2038;51.728;6.674;2022-10-16T08:05:51;100762.16;;;15.63;100.00
47753;BME280;2038;51.728;6.674;2022-10-16T08:08:19;100758.34;;;15.72;100.00
47753;BME280;2038;51.728;6.674;2022-10-16T08:10:46;100767.38;;;15.64;100.00
47753;BME280;2038;51.728;6.674;2022-10-16T08:13:12;100767.44;;;15.66;100.00
47753;BME280;2038;51.728;6.674;2022-10-16T08:15:44;100769.28;;;15.68;100.00
47753;BME280;2038;51.728;6.674;2022-10-16T08:18:12;100767.31;;;15.63;100.00
47753;BME280;2038;51.728;6.674;2022-10-16T08:20:41;100770.13;;;15.69;100.00
47753;BME280;2038;51.728;6.674;2022-10-16T08:23:10;100776.56;;;15.78;100.00
47753;BME280;2038;51.728;6.674;2022-10-16T08:25:37;100773.25;;;15.81;100.00
47753;BME280;2038;51.728;6.674;2022-10-16T08:28:05;100780.16;;;15.82;100.00
47753;BME280;2038;51.728;6.674;2022-10-16T08:30:36;100791.75;;;15.91;100.00
47753;BME280;2038;51.728;6.674;2022-10-16T08:33:03;100781.00;;;16.00;100.00
47753;BME280;2038;51.728;6.674;2022-10-16T08:35:29;100776.78;;;16.02;100.00
47753;BME280;2038;51.728;6.674;2022-10-16T08:37:56;100800.22;;;16.08;100.00
47753;BME280;2038;51.728;6.674;2022-10-16T08:40:30;100801.13;;;16.10;100.00
47753;BME280;2038;51.728;6.674;2022-10-16T08:43:41;100791.38;;;16.22;100.00
47753;BME280;2038;51.728;6.674;2022-10-16T08:49:34;100807.78;;;16.45;100.00
47753;BME280;2038;51.728;6.674;2022-10-16T08:52:02;100819.44;;;16.56;100.00
47753;BME280;2038;51.728;6.674;2022-10-16T08:54:29;100826.34;;;16.57;100.00
47753;BME280;2038;51.728;6.674;2022-10-16T08:57:09;100822.69;;;16.71;100.00
47753;BME280;2038;51.728;6.674;2022-10-16T08:59:39;100822.59;;;16.70;100.00
47753;BME280;2038;51.728;6.674;2022-10-16T09:02:23;100820.53;;;16.82;100.00
47753;BME280;2038;51.728;6.674;2022-10-16T09:08:01;100823.00;;;16.79;100.00
47753;BME280;2038;51.728;6.674;2022-10-16T09:10:59;100827.66;;;16.88;100.00
47753;BME280;2038;51.728;6.674;2022-10-16T09:13:52;100826.38;;;16.78;100.00
47753;BME280;2038;51.728;6.674;2022-10-16T09:16:46;100831.81;;;16.84;100.00
47753;BME280;2038;51.728;6.674;2022-10-16T09:19:34;100831.31;;;16.93;100.00
47753;BME280;2038;51.728;6.674;2022-10-16T09:22:16;100840.75;;;16.94;100.00
47753;BME280;2038;51.728;6.674;2022-10-16T09:24:44;100837.50;;;16.98;100.00
47753;BME280;2038;51.728;6.674;2022-10-16T09:27:14;100836.88;;;17.03;100.00
47753;BME280;2038;51.728;6.674;2022-10-16T09:29:41;100836.81;;;17.02;100.00
47753;BME280;2038;51.728;6.674;2022-10-16T09:32:17;100842.34;;;17.11;100.00
47753;BME280;2038;51.728;6.674;2022-10-16T09:34:52;100840.03;;;17.17;100.00
47753;BME280;2038;51.728;6.674;2022-10-16T09:37:23;100848.44;;;17.13;100.00
47753;BME280;2038;51.728;6.674;2022-10-16T09:39:52;100853.13;;;17.23;100.00
47753;BME280;2038;51.728;6.674;2022-10-16T09:42:23;100861.75;;;17.23;100.00
47753;BME280;2038;51.728;6.674;2022-10-16T09:44:57;100855.09;;;17.28;100.00
47753;BME280;2038;51.728;6.674;2022-10-16T09:47:28;100859.47;;;17.31;100.00
47753;BME280;2038;51.728;6.674;2022-10-16T09:50:13;100861.47;;;17.38;100.00
47753;BME280;2038;51.728;6.674;2022-10-16T09:52:47;100853.69;;;17.37;100.00
47753;BME280;2038;51.728;6.674;2022-10-16T09:55:18;100866.50;;;17.35;100.00
47753;BME280;2038;51.728;6.674;2022-10-16T09:57:54;100873.81;;;17.45;100.00
47753;BME280;2038;51.728;6.674;2022-10-16T10:00:23;100882.75;;;17.55;100.00
47753;BME280;2038;51.728;6.674;2022-10-16T10:02:50;100875.25;;;17.59;100.00
47753;BME280;2038;51.728;6.674;2022-10-16T10:05:21;100877.13;;;17.63;100.00
47753;BME280;2038;51.728;6.674;2022-10-16T10:08:02;100882.63;;;17.72;100.00
47753;BME280;2038;51.728;6.674;2022-10-16T10:10:40;100884.22;;;17.91;100.00
47753;BME280;2038;51.728;6.674;2022-10-16T10:13:24;100877.88;;;17.83;100.00
47753;BME280;2038;51.728;6.674;2022-10-16T10:15:53;100880.38;;;17.82;100.00
47753;BME280;2038;51.728;6.674;2022-10-16T10:18:21;100889.53;;;17.96;100.00
47753;BME280;2038;51.728;6.674;2022-10-16T10:21:02;100882.09;;;18.03;100.00
47753;BME280;2038;51.728;6.674;2022-10-16T10:23:31;100883.31;;;18.13;100.00
47753;BME280;2038;51.728;6.674;2022-10-16T10:26:14;100890.63;;;18.24;100.00
47753;BME280;2038;51.728;6.674;2022-10-16T10:29:06;100891.78;;;18.33;100.00
47753;BME280;2038;51.728;6.674;2022-10-16T10:37:41;100896.00;;;18.31;100.00
47753;BME280;2038;51.728;6.674;2022-10-16T10:43:59;100894.41;;;18.34;100.00
47753;BME280;2038;51.728;6.674;2022-10-16T10:46:50;100894.56;;;18.39;100.00
47753;BME280;2038;51.728;6.674;2022-10-16T10:49:52;100895.69;;;18.45;100.00
47753;BME280;2038;51.728;6.674;2022-10-16T10:53:02;100891.66;;;18.52;100.00
47753;BME280;2038;51.728;6.674;2022-10-16T10:55:57;100900.47;;;18.58;100.00
47753;BME280;2038;51.728;6.674;2022-10-16T11:02:00;100907.94;;;18.51;100.00
47753;BME280;2038;51.728;6.674;2022-10-16T11:07:33;100895.00;;;18.73;100.00
47753;BME280;2038;51.728;6.674;2022-10-16T11:10:14;100902.47;;;18.91;100.00
47753;BME280;2038;51.728;6.674;2022-10-16T11:12:51;100904.00;;;18.84;100.00
47753;BME280;2038;51.728;6.674;2022-10-16T11:15:40;100892.44;;;18.75;100.00
47753;BME280;2038;51.728;6.674;2022-10-16T11:18:33;100904.34;;;18.69;100.00
47753;BME280;2038;51.728;6.674;2022-10-16T11:21:19;100913.63;;;18.90;100.00
47753;BME280;2038;51.728;6.674;2022-10-16T11:24:03;100899.38;;;18.76;98.06
47753;BME280;2038;51.728;6.674;2022-10-16T11:26:42;100911.47;;;18.77;98.77
47753;BME280;2038;51.728;6.674;2022-10-16T11:29:34;100919.78;;;18.68;98.21
47753;BME280;2038;51.728;6.674;2022-10-16T11:32:38;100915.41;;;18.67;97.55
47753;BME280;2038;51.728;6.674;2022-10-16T11:35:23;100920.50;;;18.64;97.72
47753;BME280;2038;51.728;6.674;2022-10-16T11:37:57;100924.56;;;18.57;96.67
47753;BME280;2038;51.728;6.674;2022-10-16T11:40:31;100918.44;;;18.55;97.52
47753;BME280;2038;51.728;6.674;2022-10-16T11:43:13;100919.53;;;18.62;98.84
47753;BME280;2038;51.728;6.674;2022-10-16T11:45:57;100935.75;;;18.58;96.85
47753;BME280;2038;51.728;6.674;2022-10-16T11:48:45;100925.56;;;18.61;96.41
47753;BME280;2038;51.728;6.674;2022-10-16T11:51:32;100920.69;;;18.70;98.07
47753;BME280;2038;51.728;6.674;2022-10-16T11:54:14;100929.75;;;18.83;100.00
47753;BME280;2038;51.728;6.674;2022-10-16T11:56:50;100925.56;;;18.86;96.81
47753;BME280;2038;51.728;6.674;2022-10-16T11:59:35;100930.88;;;18.89;96.62
47753;BME280;2038;51.728;6.674;2022-10-16T12:02:30;100927.09;;;19.05;96.22
47753;BME280;2038;51.728;6.674;2022-10-16T12:05:23;100930.13;;;19.18;95.76
47753;BME280;2038;51.728;6.674;2022-10-16T12:08:08;100921.88;;;19.29;95.90
47753;BME280;2038;51.728;6.674;2022-10-16T12:10:38;100931.72;;;19.15;94.94
47753;BME280;2038;51.728;6.674;2022-10-16T12:13:36;100937.28;;;19.26;95.88
47753;BME280;2038;51.728;6.674;2022-10-16T12:16:06;100944.41;;;19.33;95.25
47753;BME280;2038;51.728;6.674;2022-10-16T12:18:45;100954.94;;;19.39;94.22
47753;BME280;2038;51.728;6.674;2022-10-16T12:21:13;100956.50;;;19.34;93.56
47753;BME280;2038;51.728;6.674;2022-10-16T12:23:50;100956.16;;;19.48;95.65
47753;BME280;2038;51.728;6.674;2022-10-16T12:26:33;100953.09;;;19.60;95.33
47753;BME280;2038;51.728;6.674;2022-10-16T12:29:23;100952.28;;;19.62;94.43
47753;BME280;2038;51.728;6.674;2022-10-16T12:31:58;100958.50;;;19.68;93.69
47753;BME280;2038;51.728;6.674;2022-10-16T12:34:31;100956.34;;;19.54;91.28
47753;BME280;2038;51.728;6.674;2022-10-16T12:37:19;100948.34;;;19.47;92.01
47753;BME280;2038;51.728;6.674;2022-10-16T12:39:50;100950.03;;;19.46;93.29
47753;BME280;2038;51.728;6.674;2022-10-16T12:44:53;100959.47;;;19.71;93.20
47753;BME280;2038;51.728;6.674;2022-10-16T12:49:58;100963.75;;;19.71;94.16
47753;BME280;2038;51.728;6.674;2022-10-16T12:52:37;100964.56;;;19.68;92.91
47753;BME280;2038;51.728;6.674;2022-10-16T12:55:09;100968.25;;;19.49;92.73
47753;BME280;2038;51.728;6.674;2022-10-16T13:00:40;100971.28;;;19.90;96.69
47753;BME280;2038;51.728;6.674;2022-10-16T13:09:02;100969.91;;;20.01;91.89
47753;BME280;2038;51.728;6.674;2022-10-16T13:12:11;100964.69;;;19.99;91.34
47753;BME280;2038;51.728;6.674;2022-10-16T13:15:11;100967.34;;;20.02;91.66
47753;BME280;2038;51.728;6.674;2022-10-16T13:29:33;100971.91;;;20.09;91.65
47753;BME280;2038;51.728;6.674;2022-10-16T13:32:01;100972.59;;;20.04;91.36
47753;BME280;2038;51.728;6.674;2022-10-16T13:34:47;100974.16;;;19.99;91.88
47753;BME280;2038;51.728;6.674;2022-10-16T13:37:23;100979.09;;;19.91;89.33
47753;BME280;2038;51.728;6.674;2022-10-16T13:39:50;100977.53;;;19.96;90.16
47753;BME280;2038;51.728;6.674;2022-10-16T13:42:28;100977.88;;;19.80;90.33
47753;BME280;2038;51.728;6.674;2022-10-16T13:44:56;100975.63;;;19.91;90.71
47753;BME280;2038;51.728;6.674;2022-10-16T13:47:28;100969.97;;;19.76;91.13
47753;BME280;2038;51.728;6.674;2022-10-16T13:50:13;100966.16;;;19.65;92.69
47753;BME280;2038;51.728;6.674;2022-10-16T13:52:41;100972.72;;;19.55;92.26
47753;BME280;2038;51.728;6.674;2022-10-16T13:57:38;100971.88;;;19.31;93.94
47753;BME280;2038;51.728;6.674;2022-10-16T14:00:22;100974.06;;;19.18;94.55
47753;BME280;2038;51.728;6.674;2022-10-16T14:02:55;100976.38;;;19.11;94.99
47753;BME280;2038;51.728;6.674;2022-10-16T14:05:27;100969.16;;;19.01;96.88
47753;BME280;2038;51.728;6.674;2022-10-16T14:07:54;100967.31;;;18.98;96.97
47753;BME280;2038;51.728;6.674;2022-10-16T14:10:29;100968.19;;;18.99;96.62
47753;BME280;2038;51.728;6.674;2022-10-16T14:13:00;100975.88;;;19.21;96.44
47753;BME280;2038;51.728;6.674;2022-10-16T14:15:29;100976.81;;;19.23;95.86
47753;BME280;2038;51.728;6.674;2022-10-16T14:17:58;100982.38;;;19.10;96.56
47753;BME280;2038;51.728;6.674;2022-10-16T14:20:28;100983.97;;;19.06;96.38
47753;BME280;2038;51.728;6.674;2022-10-16T14:23:02;100986.53;;;19.05;97.10
47753;BME280;2038;51.728;6.674;2022-10-16T14:25:32;100983.50;;;18.93;97.47
47753;BME280;2038;51.728;6.674;2022-10-16T14:28:14;100987.81;;;18.94;97.11
47753;BME280;2038;51.728;6.674;2022-10-16T14:33:31;100983.28;;;18.87;98.54